Sensation — C6FM8 — position and weather

sailwx.info

Track history (hours):
 
Tides and Currents Weather Stations Pressure Air Temp Water Temp Dewpoint Dewpoint Depression Visibility Wind Speed Wind Dir Waves Ship Positions

Sensation

Last reported at 2017-Aug-14 23:00 UTC. Time now 2017-Aug-18 10:51 UTC.
Position N 25°15' W 079°48'.

Type: Ship. MMSI: 309697000.

Date/timePositionNaut miles runAvg speedWind from/ knotsBaromVisibWave heightAir tempDewpointWater temp
2017-Aug-14 23:00N 25°15' W 079°48'816.8
2017-Aug-14 22:30N 25°23' W 079°51'816.5
2017-Aug-14 22:01N 25°30' W 079°54'816.3
2017-Aug-14 21:31N 25°38' W 079°57'816.6
2017-Aug-14 21:01N 25°45' W 080°03'611.2
2017-Aug-14 20:30N 25°46' W 080°09'2 3.0
2017-Aug-14 19:59N 25°47' W 080°10'0 0.0
2017-Aug-14 19:29N 25°47' W 080°10'0 0.0
2017-Aug-14 18:59N 25°47' W 080°10'0 0.0
2017-Aug-14 18:29N 25°47' W 080°10'0 0.0
2017-Aug-14 17:59N 25°47' W 080°10'0 0.0
2017-Aug-14 17:29N 25°47' W 080°10'0 0.0
2017-Aug-14 16:59N 25°47' W 080°10'0 0.0
2017-Aug-14 16:29N 25°47' W 080°10'0 0.0
2017-Aug-14 15:59N 25°47' W 080°10'0 0.0
2017-Aug-14 15:29N 25°47' W 080°10'0 0.0
2017-Aug-14 14:59N 25°47' W 080°10'0 0.0
2017-Aug-14 14:29N 25°47' W 080°10'0 0.0
2017-Aug-14 13:59N 25°47' W 080°10'0 0.0
2017-Aug-14 13:26N 25°47' W 080°10'0 0.0
2017-Aug-14 12:56N 25°47' W 080°10'0 0.0
2017-Aug-14 12:26N 25°47' W 080°10'0 0.0
2017-Aug-14 11:59N 25°47' W 080°10'1 1.2
2017-Aug-14 11:30N 25°47' W 080°11'2 3.7
2017-Aug-14 11:00N 25°46' W 080°09'510.7
2017-Aug-14 10:31N 25°46' W 080°03'510.8
2017-Aug-14 10:01N 25°44' W 079°58'713.6
2017-Aug-14 09:30N 25°37' W 079°56'714.6
2017-Aug-14 09:00N 25°30' W 079°56'815.6
2017-Aug-14 08:30N 25°22' W 079°56'815.4
2017-Aug-14 08:00N 25°14' W 079°58'915.3
2017-Aug-14 07:24N 25°05' W 080°00'615.3
2017-Aug-14 07:00N 24°59' W 080°02'815.0
2017-Aug-14 06:29N 24°52' W 080°03'814.6
2017-Aug-14 05:57N 24°46' W 080°09'714.9
2017-Aug-14 05:28N 24°41' W 080°15'3815.2
2017-Aug-14 02:57N 24°15' W 080°46'40516.8
2017-Aug-13 02:53N 20°39' W 086°56'717.3
2017-Aug-13 02:31N 20°33' W 086°60'4 8.7
2017-Aug-13 02:00N 20°29' W 086°59'0 0.6
2017-Aug-13 01:30N 20°29' W 086°59'0 0.0
2017-Aug-13 01:00N 20°29' W 086°59'0 0.0
2017-Aug-13 00:27N 20°29' W 086°59'0 0.0
2017-Aug-12 23:54N 20°29' W 086°59'0 0.0
2017-Aug-12 23:24N 20°29' W 086°59'0 0.0
2017-Aug-12 23:00N 20°29' W 086°59'0 0.0
2017-Aug-12 22:27N 20°29' W 086°59'0 0.0
2017-Aug-12 21:58N 20°29' W 086°59'0 0.0
2017-Aug-12 21:30N 20°29' W 086°59'0 0.0
2017-Aug-12 20:57N 20°29' W 086°59'0 0.0
2017-Aug-12 20:30N 20°29' W 086°59'0 0.0
2017-Aug-12 19:56N 20°29' W 086°59'0 0.0
2017-Aug-12 19:23N 20°29' W 086°59'0 0.0
2017-Aug-12 18:58N 20°29' W 086°59'0 0.0
2017-Aug-12 18:30N 20°29' W 086°59'0 0.0
2017-Aug-12 17:57N 20°29' W 086°59'0 0.0
2017-Aug-12 17:29N 20°29' W 086°59'0 0.0
2017-Aug-12 16:59N 20°29' W 086°59'0 0.0
2017-Aug-12 16:29N 20°29' W 086°59'0 0.0
2017-Aug-12 15:59N 20°29' W 086°59'1 1.7
2017-Aug-12 15:30N 20°29' W 086°59'4 8.1
2017-Aug-12 15:00N 20°33' W 086°58'46112.3
2017-Aug-11 01:36N 24°51' W 080°03'214.6
2017-Aug-11 01:30N 24°52' W 080°02'713.8
2017-Aug-11 01:00N 24°57' W 079°57'5288.7
2017-Aug-11 01:00N 24°54' W 079°54'918.7 100 / 101016.0 29.027.628.0
2017-Aug-11 00:30N 25°03' W 079°53'714.0
2017-Aug-11 00:01N 25°10' W 079°51'714.1
2017-Aug-10 23:30N 25°16' W 079°48'713.7
2017-Aug-10 23:00N 25°23' W 079°48'713.5
2017-Aug-10 22:30N 25°30' W 079°48'713.2
2017-Aug-10 22:01N 25°36' W 079°52'714.6
2017-Aug-10 21:31N 25°40' W 079°58'714.5
2017-Aug-10 21:00N 25°46' W 080°03'510.5
2017-Aug-10 20:30N 25°46' W 080°09'1 2.0
2017-Aug-10 19:57N 25°47' W 080°10'0 0.0
2017-Aug-10 19:24N 25°47' W 080°10'0 0.0
2017-Aug-10 18:57N 25°47' W 080°10'0 0.0
2017-Aug-10 18:30N 25°47' W 080°10'0 0.0
2017-Aug-10 17:57N 25°47' W 080°10'0 0.0
2017-Aug-10 17:27N 25°47' W 080°10'0 0.0
2017-Aug-10 17:00N 25°47' W 080°10'0 0.0
2017-Aug-10 16:27N 25°47' W 080°10'0 0.0
2017-Aug-10 16:00N 25°47' W 080°10'0 0.0
2017-Aug-10 15:30N 25°47' W 080°10'0 0.0
2017-Aug-10 15:00N 25°47' W 080°10'0 0.0
2017-Aug-10 14:30N 25°47' W 080°10'0 0.0
2017-Aug-10 14:00N 25°47' W 080°10'0 0.0
2017-Aug-10 13:30N 25°47' W 080°10'0 0.0
2017-Aug-10 13:00N 25°47' W 080°10'0 0.0
2017-Aug-10 12:30N 25°47' W 080°10'0 0.0
2017-Aug-10 12:00N 25°47' W 080°10'1 1.1
2017-Aug-10 11:31N 25°47' W 080°11'2 3.5
2017-Aug-10 11:00N 25°46' W 080°09'510.8
2017-Aug-10 10:30N 25°47' W 080°03'611.3
2017-Aug-10 10:00N 25°49' W 079°57'612.8
2017-Aug-10 09:30N 25°53' W 079°52'713.5
2017-Aug-10 09:00N 25°56' W 079°45'713.4
2017-Aug-10 08:30N 26°00' W 079°39'713.6
2017-Aug-10 08:00N 26°04' W 079°32'714.2
2017-Aug-10 07:30N 26°07' W 079°26'713.9
2017-Aug-10 07:00N 26°11' W 079°19'714.7
2017-Aug-10 06:30N 26°15' W 079°12'7717.1
2017-Aug-10 02:00N 26°00' W 077°48'40016.0 140 / 301015.0 29.027.628.0
2017-Aug-09 01:00N 22°12' W 071°48'148 6.4 140 / 161014.0 28.026.628.0
2017-Aug-08 02:00N 23°36' W 074°00'187 8.1 050 / 251015.0 29.026.228.0
2017-Aug-07 03:00N 25°24' W 076°48'142 5.3 080 / 221017.0 29.027.628.0
2017-Aug-06 00:25N 26°13' W 079°16'615.7
2017-Aug-06 00:00N 26°10' W 079°22'815.9
2017-Aug-05 23:31N 26°06' W 079°29'816.1
2017-Aug-05 23:00N 26°02' W 079°37'816.3
2017-Aug-05 22:31N 25°57' W 079°45'816.8
2017-Aug-05 22:01N 25°53' W 079°53'816.7
2017-Aug-05 21:31N 25°49' W 080°01'713.3
2017-Aug-05 21:00N 25°46' W 080°07'4 7.3
2017-Aug-05 20:30N 25°47' W 080°11'1 1.0
2017-Aug-05 19:54N 25°47' W 080°10'0 0.0
2017-Aug-05 19:30N 25°47' W 080°10'0 0.0
2017-Aug-05 18:57N 25°47' W 080°10'0 0.0
2017-Aug-05 18:30N 25°47' W 080°10'0 0.0
2017-Aug-05 17:57N 25°47' W 080°10'0 0.0
2017-Aug-05 17:30N 25°47' W 080°10'0 0.0
2017-Aug-05 16:54N 25°47' W 080°10'0 0.0
2017-Aug-05 16:30N 25°47' W 080°10'0 0.0
2017-Aug-05 16:00N 25°47' W 080°10'0 0.0
2017-Aug-05 15:30N 25°47' W 080°10'0 0.0
2017-Aug-05 15:00N 25°47' W 080°10'0 0.0
2017-Aug-05 14:30N 25°47' W 080°10'0 0.0
2017-Aug-05 14:00N 25°47' W 080°10'0 0.0
2017-Aug-05 13:30N 25°47' W 080°10'0 0.0
2017-Aug-05 13:00N 25°47' W 080°10'0 0.0
2017-Aug-05 12:27N 25°47' W 080°10'0 0.0
2017-Aug-05 12:00N 25°47' W 080°10'0 0.0
2017-Aug-05 11:27N 25°47' W 080°10'1 2.7
2017-Aug-05 11:00N 25°46' W 080°09'510.5
2017-Aug-05 10:30N 25°47' W 080°03'612.4
2017-Aug-05 10:00N 25°43' W 079°58'917.4
2017-Aug-05 09:30N 25°34' W 079°56'918.1
2017-Aug-05 09:00N 25°25' W 079°56'917.8
2017-Aug-05 08:30N 25°17' W 079°57'11517.6
2017-Aug-05 02:00N 23°48' W 081°18'   080 / 221016.0 30.028.729.0
Track history (hours):
 
Tides and Currents Weather Stations Pressure Air Temp Water Temp Dewpoint Dewpoint Depression Visibility Wind Speed Wind Dir Waves Ship Positions

Sensation

Last reported at 2017-Aug-14 23:00 UTC. Time now 2017-Aug-18 10:51 UTC.
Position N 25°15' W 079°48'.

Type: Ship. MMSI: 309697000.

Date/timePositionNaut miles runAvg speedWind from/ knotsBaromVisibWave heightAir tempDewpointWater temp
2017-Aug-14 23:00N 25°15' W 079°48'816.8
2017-Aug-14 22:30N 25°23' W 079°51'816.5
2017-Aug-14 22:01N 25°30' W 079°54'816.3
2017-Aug-14 21:31N 25°38' W 079°57'816.6
2017-Aug-14 21:01N 25°45' W 080°03'611.2
2017-Aug-14 20:30N 25°46' W 080°09'2 3.0
2017-Aug-14 19:59N 25°47' W 080°10'0 0.0
2017-Aug-14 19:29N 25°47' W 080°10'0 0.0
2017-Aug-14 18:59N 25°47' W 080°10'0 0.0
2017-Aug-14 18:29N 25°47' W 080°10'0 0.0
2017-Aug-14 17:59N 25°47' W 080°10'0 0.0
2017-Aug-14 17:29N 25°47' W 080°10'0 0.0
2017-Aug-14 16:59N 25°47' W 080°10'0 0.0
2017-Aug-14 16:29N 25°47' W 080°10'0 0.0
2017-Aug-14 15:59N 25°47' W 080°10'0 0.0
2017-Aug-14 15:29N 25°47' W 080°10'0 0.0
2017-Aug-14 14:59N 25°47' W 080°10'0 0.0
2017-Aug-14 14:29N 25°47' W 080°10'0 0.0
2017-Aug-14 13:59N 25°47' W 080°10'0 0.0
2017-Aug-14 13:26N 25°47' W 080°10'0 0.0
2017-Aug-14 12:56N 25°47' W 080°10'0 0.0
2017-Aug-14 12:26N 25°47' W 080°10'0 0.0
2017-Aug-14 11:59N 25°47' W 080°10'1 1.2
2017-Aug-14 11:30N 25°47' W 080°11'2 3.7
2017-Aug-14 11:00N 25°46' W 080°09'510.7
2017-Aug-14 10:31N 25°46' W 080°03'510.8
2017-Aug-14 10:01N 25°44' W 079°58'713.6
2017-Aug-14 09:30N 25°37' W 079°56'714.6
2017-Aug-14 09:00N 25°30' W 079°56'815.6
2017-Aug-14 08:30N 25°22' W 079°56'815.4
2017-Aug-14 08:00N 25°14' W 079°58'915.3
2017-Aug-14 07:24N 25°05' W 080°00'615.3
2017-Aug-14 07:00N 24°59' W 080°02'815.0
2017-Aug-14 06:29N 24°52' W 080°03'814.6
2017-Aug-14 05:57N 24°46' W 080°09'714.9
2017-Aug-14 05:28N 24°41' W 080°15'3815.2
2017-Aug-14 02:57N 24°15' W 080°46'40516.8
2017-Aug-13 02:53N 20°39' W 086°56'717.3
2017-Aug-13 02:31N 20°33' W 086°60'4 8.7
2017-Aug-13 02:00N 20°29' W 086°59'0 0.6
2017-Aug-13 01:30N 20°29' W 086°59'0 0.0
2017-Aug-13 01:00N 20°29' W 086°59'0 0.0
2017-Aug-13 00:27N 20°29' W 086°59'0 0.0
2017-Aug-12 23:54N 20°29' W 086°59'0 0.0
2017-Aug-12 23:24N 20°29' W 086°59'0 0.0
2017-Aug-12 23:00N 20°29' W 086°59'0 0.0
2017-Aug-12 22:27N 20°29' W 086°59'0 0.0
2017-Aug-12 21:58N 20°29' W 086°59'0 0.0
2017-Aug-12 21:30N 20°29' W 086°59'0 0.0
2017-Aug-12 20:57N 20°29' W 086°59'0 0.0
2017-Aug-12 20:30N 20°29' W 086°59'0 0.0
2017-Aug-12 19:56N 20°29' W 086°59'0 0.0
2017-Aug-12 19:23N 20°29' W 086°59'0 0.0
2017-Aug-12 18:58N 20°29' W 086°59'0 0.0
2017-Aug-12 18:30N 20°29' W 086°59'0 0.0
2017-Aug-12 17:57N 20°29' W 086°59'0 0.0
2017-Aug-12 17:29N 20°29' W 086°59'0 0.0
2017-Aug-12 16:59N 20°29' W 086°59'0 0.0
2017-Aug-12 16:29N 20°29' W 086°59'0 0.0
2017-Aug-12 15:59N 20°29' W 086°59'1 1.7
2017-Aug-12 15:30N 20°29' W 086°59'4 8.1
2017-Aug-12 15:00N 20°33' W 086°58'46112.3
2017-Aug-11 01:36N 24°51' W 080°03'214.6
2017-Aug-11 01:30N 24°52' W 080°02'713.8
2017-Aug-11 01:00N 24°57' W 079°57'5288.7
2017-Aug-11 01:00N 24°54' W 079°54'918.7 100 / 101016.0 29.027.628.0
2017-Aug-11 00:30N 25°03' W 079°53'714.0
2017-Aug-11 00:01N 25°10' W 079°51'714.1
2017-Aug-10 23:30N 25°16' W 079°48'713.7
2017-Aug-10 23:00N 25°23' W 079°48'713.5
2017-Aug-10 22:30N 25°30' W 079°48'713.2
2017-Aug-10 22:01N 25°36' W 079°52'714.6
2017-Aug-10 21:31N 25°40' W 079°58'714.5
2017-Aug-10 21:00N 25°46' W 080°03'510.5
2017-Aug-10 20:30N 25°46' W 080°09'1 2.0
2017-Aug-10 19:57N 25°47' W 080°10'0 0.0
2017-Aug-10 19:24N 25°47' W 080°10'0 0.0
2017-Aug-10 18:57N 25°47' W 080°10'0 0.0
2017-Aug-10 18:30N 25°47' W 080°10'0 0.0
2017-Aug-10 17:57N 25°47' W 080°10'0 0.0
2017-Aug-10 17:27N 25°47' W 080°10'0 0.0
2017-Aug-10 17:00N 25°47' W 080°10'0 0.0
2017-Aug-10 16:27N 25°47' W 080°10'0 0.0
2017-Aug-10 16:00N 25°47' W 080°10'0 0.0
2017-Aug-10 15:30N 25°47' W 080°10'0 0.0
2017-Aug-10 15:00N 25°47' W 080°10'0 0.0
2017-Aug-10 14:30N 25°47' W 080°10'0 0.0
2017-Aug-10 14:00N 25°47' W 080°10'0 0.0
2017-Aug-10 13:30N 25°47' W 080°10'0 0.0
2017-Aug-10 13:00N 25°47' W 080°10'0 0.0
2017-Aug-10 12:30N 25°47' W 080°10'0 0.0
2017-Aug-10 12:00N 25°47' W 080°10'1 1.1
2017-Aug-10 11:31N 25°47' W 080°11'2 3.5
2017-Aug-10 11:00N 25°46' W 080°09'510.8
2017-Aug-10 10:30N 25°47' W 080°03'611.3
2017-Aug-10 10:00N 25°49' W 079°57'612.8
2017-Aug-10 09:30N 25°53' W 079°52'713.5
2017-Aug-10 09:00N 25°56' W 079°45'713.4
2017-Aug-10 08:30N 26°00' W 079°39'713.6
2017-Aug-10 08:00N 26°04' W 079°32'714.2
2017-Aug-10 07:30N 26°07' W 079°26'713.9
2017-Aug-10 07:00N 26°11' W 079°19'714.7
2017-Aug-10 06:30N 26°15' W 079°12'7717.1
2017-Aug-10 02:00N 26°00' W 077°48'40016.0 140 / 301015.0 29.027.628.0
2017-Aug-09 01:00N 22°12' W 071°48'148 6.4 140 / 161014.0 28.026.628.0
2017-Aug-08 02:00N 23°36' W 074°00'187 8.1 050 / 251015.0 29.026.228.0
2017-Aug-07 03:00N 25°24' W 076°48'142 5.3 080 / 221017.0 29.027.628.0
2017-Aug-06 00:25N 26°13' W 079°16'615.7
2017-Aug-06 00:00N 26°10' W 079°22'815.9
2017-Aug-05 23:31N 26°06' W 079°29'816.1
2017-Aug-05 23:00N 26°02' W 079°37'816.3
2017-Aug-05 22:31N 25°57' W 079°45'816.8
2017-Aug-05 22:01N 25°53' W 079°53'816.7
2017-Aug-05 21:31N 25°49' W 080°01'713.3
2017-Aug-05 21:00N 25°46' W 080°07'4 7.3
2017-Aug-05 20:30N 25°47' W 080°11'1 1.0
2017-Aug-05 19:54N 25°47' W 080°10'0 0.0
2017-Aug-05 19:30N 25°47' W 080°10'0 0.0
2017-Aug-05 18:57N 25°47' W 080°10'0 0.0
2017-Aug-05 18:30N 25°47' W 080°10'0 0.0
2017-Aug-05 17:57N 25°47' W 080°10'0 0.0
2017-Aug-05 17:30N 25°47' W 080°10'0 0.0
2017-Aug-05 16:54N 25°47' W 080°10'0 0.0
2017-Aug-05 16:30N 25°47' W 080°10'0 0.0
2017-Aug-05 16:00N 25°47' W 080°10'0 0.0
2017-Aug-05 15:30N 25°47' W 080°10'0 0.0
2017-Aug-05 15:00N 25°47' W 080°10'0 0.0
2017-Aug-05 14:30N 25°47' W 080°10'0 0.0
2017-Aug-05 14:00N 25°47' W 080°10'0 0.0
2017-Aug-05 13:30N 25°47' W 080°10'0 0.0
2017-Aug-05 13:00N 25°47' W 080°10'0 0.0
2017-Aug-05 12:27N 25°47' W 080°10'0 0.0
2017-Aug-05 12:00N 25°47' W 080°10'0 0.0
2017-Aug-05 11:27N 25°47' W 080°10'1 2.7
2017-Aug-05 11:00N 25°46' W 080°09'510.5
2017-Aug-05 10:30N 25°47' W 080°03'612.4
2017-Aug-05 10:00N 25°43' W 079°58'917.4
2017-Aug-05 09:30N 25°34' W 079°56'918.1
2017-Aug-05 09:00N 25°25' W 079°56'917.8
2017-Aug-05 08:30N 25°17' W 079°57'11517.6
2017-Aug-05 02:00N 23°48' W 081°18'   080 / 221016.0 30.028.729.0

Dump ship's entire track history